Latest Coastal Weather Observations for Milingimbi

IDD60701

Issued at 6:01 pm CST Thursday 5 May 2016 (issued every 10 minutes, with the page automatically refreshed every 10 minutes)

About coastal observations | Map of coastal stations | Coastal observations for NT | Marine services | Other Formats
Station Details ID: 014404 Name: MILINGIMBI AIRPORT Lat: -12.09 Lon: 134.89 Height: 15.0 m
Data from the previous 72 hours. | See also: Recent months at Milingimbi
Date/Time
CST
Temp

°C
Wind Pressure Rain
since 9am
mm
Weather Cloud Vis
km
Sea
Height
m
Swell
Dir
 
Speed
knots
Gust
knots
hPa Trend Height
m
Period
s
Dir
05/06:00pm 28.9 E 5 7 1009.5 - 0.0 - - - - - - -
05/05:30pm 29.4 E 6 9 1009.2 - 0.0 - - - - - - -
05/05:00pm 28.3 E 13 23 1009.4 - 0.0 - - - - - - -
05/04:30pm 31.1 NNE 7 12 1009.1 - 0.0 - - - - - - -
05/04:00pm 31.8 NNE 7 11 1009.0 - 0.0 - - - - - - -
05/03:30pm 31.6 NNE 7 13 1008.9 - 0.0 - - - - - - -
05/03:00pm 32.1 NE 8 13 1008.9 - 0.0 - - - - - - -
05/02:30pm 32.3 ENE 8 11 1009.3 - 0.0 - - - - - - -
05/02:00pm 32.5 ENE 8 11 1009.8 - 0.0 - - - - - - -
05/01:30pm 32.2 ENE 8 13 1010.4 - 0.0 - - - - - - -
05/01:00pm 32.5 ENE 9 13 1010.8 - 0.0 - - - - - - -
05/12:30pm 32.6 E 6 11 1011.2 - 0.0 - - - - - - -
05/12:00pm 31.5 E 8 13 1011.7 - 0.0 - - - - - - -
05/11:30am 31.0 E 8 15 1012.2 - 0.0 - - - - - - -
05/11:00am 31.0 E 7 12 1012.4 - 0.0 - - - - - - -
05/10:30am 31.0 SE 10 14 1012.6 - 0.0 - - - - - - -
05/10:00am 30.2 ESE 9 13 1012.7 - 0.0 - - - - - - -
05/09:30am 29.8 ESE 8 11 1012.8 - 0.0 - - - - - - -
05/09:00am 29.8 ESE 8 11 1012.6 - 4.0 - - - - - - -
05/08:30am 28.9 SE 7 9 1012.4 - 4.0 - - - - - - -
05/08:00am 28.1 SE 6 9 1012.1 - 4.0 - - - - - - -
05/07:30am 26.8 SSE 4 5 1011.6 - 4.0 - - - - - - -
05/07:00am 26.2 SSE 4 5 1011.5 - 4.0 - - - - - - -
05/06:30am 26.2 SSE 5 7 1011.1 - 4.0 - - - - - - -
05/06:00am 26.2 SSE 6 7 1010.8 - 4.0 - - - - - - -
05/05:30am 26.3 SSE 5 6 1010.8 - 4.0 - - - - - - -
05/05:00am 26.2 SSE 4 5 1010.8 - 4.0 - - - - - - -
05/04:30am 26.0 SSE 4 6 1010.8 - 4.0 - - - - - - -
05/04:00am 25.9 SSE 3 4 1010.8 - 4.0 - - - - - - -
05/03:30am 25.9 SE 3 4 1010.9 - 4.0 - - - - - - -
05/03:00am 26.1 SSE 2 4 1011.0 - 4.0 - - - - - - -
05/02:30am 26.3 SSE 4 5 1011.3 - 4.0 - - - - - - -
05/02:00am 26.4 SSE 4 5 1011.7 - 4.0 - - - - - - -
05/01:30am 26.5 S 3 5 1011.9 - 4.0 - - - - - - -
05/01:00am 27.2 S 4 5 1012.1 - 4.0 - - - - - - -
05/12:30am 27.9 SE 4 6 1012.1 - 4.0 - - - - - - -
05/12:00am 28.3 ESE 5 7 1012.3 - 4.0 - - - - - - -
 
Date/Time
CST
Temp

°C
Wind Pressure Rain
since 9am
mm
Weather Cloud Vis
km
Sea
Height
m
Swell
Dir
 
Speed
knots
Gust
knots
hPa Trend Height
m
Period
s
Dir
04/11:30pm 28.6 E 4 7 1012.5 - 4.0 - - - - - - -
04/11:00pm 28.8 E 5 8 1012.6 - 4.0 - - - - - - -
04/10:30pm 28.9 E 5 8 1012.5 - 4.0 - - - - - - -
04/10:00pm 28.8 ESE 6 8 1012.4 - 4.0 - - - - - - -
04/09:30pm 27.9 SE 3 6 1012.4 - 4.0 - - - - - - -
04/09:00pm 28.4 SE 4 6 1012.2 - 4.0 - - - - - - -
04/08:30pm 28.8 ESE 6 7 1011.9 - 4.0 - - - - - - -
04/08:00pm 28.6 ESE 5 8 1011.6 - 4.0 - - - - - - -
04/07:30pm 28.4 ESE 6 8 1011.1 - 4.0 - - - - - - -
04/07:00pm 28.2 ESE 5 7 1011.0 - 4.0 - - - - - - -
04/06:30pm 28.2 ESE 5 7 1010.4 - 4.0 - - - - - - -
04/06:00pm 28.4 SE 5 8 1009.9 - 4.0 - - - - - - -
04/05:30pm 28.3 SE 6 8 1009.8 - 4.0 - - - - - - -
04/05:00pm 27.9 ESE 5 7 1009.3 - 4.0 - - - - - - -
04/04:30pm 26.9 SE 6 8 1009.1 - 4.0 - - - - - - -
04/04:00pm 25.8 ESE 13 23 1009.4 - 3.0 - - - - - - -
04/03:58pm 25.8 ESE 13 23 1009.4 - 2.6 - - - - - - -
04/03:43pm 30.8 ESE 16 27 1009.5 - 0.0 - - - - - - -
04/03:30pm 33.1 ENE 6 9 1009.1 - 0.0 - - - - - - -
04/03:00pm 32.7 ENE 8 13 1008.8 - 0.0 - - - - - - -
04/02:30pm 32.9 ENE 8 11 1009.5 - 0.0 - - - - - - -
04/02:00pm 32.7 NE 8 13 1010.0 - 0.0 - - - - - - -
04/01:30pm 33.1 E 8 12 1010.2 - 0.0 - - - - - - -
04/01:00pm 32.6 ESE 9 14 1010.7 - 0.0 - - - - - - -
04/12:30pm 31.7 ESE 9 13 1011.2 - 0.0 - - - - - - -
04/12:00pm 32.3 ESE 8 13 1011.7 - 0.0 - - - - - - -
04/11:30am 31.6 ESE 9 15 1012.4 - 0.0 - - - - - - -
04/11:00am 31.4 ESE 9 13 1012.8 - 0.0 - - - - - - -
04/10:30am 31.1 E 7 11 1013.0 - 0.0 - - - - - - -
04/10:00am 30.6 E 8 13 1012.9 - 0.0 - - - - - - -
04/09:30am 29.8 E 9 13 1013.0 - 0.0 - - - - - - -
04/09:00am 29.4 E 8 14 1012.8 - 0.2 - - - - - - -
04/08:30am 29.0 E 8 13 1012.8 - 0.2 - - - - - - -
04/08:00am 28.8 E 7 11 1012.3 - 0.2 - - - - - - -
04/07:30am 27.8 ESE 4 5 1012.2 - 0.2 - - - - - - -
04/07:00am 26.2 SE 3 4 1012.0 - 0.2 - - - - - - -
04/06:30am 25.9 SSE 4 5 1011.5 - 0.2 - - - - - - -
04/06:00am 26.0 SE 4 5 1011.1 - 0.2 - - - - - - -
04/05:30am 26.1 SE 4 5 1011.0 - 0.2 - - - - - - -
04/05:00am 26.4 SE 4 5 1010.9 - 0.2 - - - - - - -
04/04:30am 26.8 SE 5 6 1010.8 - 0.2 - - - - - - -
04/04:00am 27.0 SE 5 7 1010.8 - 0.2 - - - - - - -
04/03:30am 27.7 E 6 9 1010.8 - 0.2 - - - - - - -
04/03:00am 27.6 ESE 6 9 1010.8 - 0.2 - - - - - - -
04/02:30am 26.7 ESE 4 7 1011.0 - 0.2 - - - - - - -
04/02:00am 26.6 SE 5 7 1011.1 - 0.2 - - - - - - -
04/01:30am 26.6 SSE 6 7 1011.3 - 0.2 - - - - - - -
04/01:00am 26.5 SE 4 5 1011.6 - 0.2 - - - - - - -
04/12:30am 26.6 SSE 4 5 1011.9 - 0.2 - - - - - - -
04/12:00am 26.8 SSE 5 6 1012.3 - 0.2 - - - - - - -
 
Date/Time
CST
Temp

°C
Wind Pressure Rain
since 9am
mm
Weather Cloud Vis
km
Sea
Height
m
Swell
Dir
 
Speed
knots
Gust
knots
hPa Trend Height
m
Period
s
Dir
03/11:30pm 27.5 SSE 5 7 1012.5 - 0.2 - - - - - - -
03/11:00pm 28.1 ESE 6 9 1012.5 - 0.2 - - - - - - -
03/10:30pm 28.3 E 5 9 1012.6 - 0.2 - - - - - - -
03/10:00pm 28.4 E 6 11 1012.5 - 0.2 - - - - - - -
03/09:30pm 28.4 E 6 9 1012.6 - 0.2 - - - - - - -
03/09:00pm 28.0 E 5 8 1012.6 - 0.2 - - - - - - -
03/08:30pm 27.6 E 5 7 1012.4 - 0.2 - - - - - - -
03/08:00pm 27.1 E 6 9 1012.1 - 0.2 - - - - - - -
03/07:30pm 29.2 E 6 10 1011.5 - 0.0 - - - - - - -
03/07:00pm 29.3 ENE 4 7 1011.1 - 0.0 - - - - - - -
03/06:30pm 29.3 NE 5 9 1010.6 - 0.0 - - - - - - -
03/06:00pm 29.6 ENE 6 8 1010.3 - 0.0 - - - - - - -
03/05:30pm 29.6 NE 3 7 1009.9 - 0.0 - - - - - - -
03/05:00pm 30.1 NE 4 7 1009.4 - 0.0 - - - - - - -
03/04:30pm 30.3 NNE 5 8 1008.9 - 0.0 - - - - - - -
03/04:00pm 30.7 NNE 5 6 1009.2 - 0.0 - - - - - - -
03/03:30pm 30.8 NE 5 9 1009.3 - 0.0 - - - - - - -
03/03:00pm 31.1 ENE 6 10 1009.5 - 0.0 - - - - - - -
03/02:30pm 31.6 ENE 6 8 1009.9 - 0.0 - - - - - - -
03/02:00pm 31.3 NE 7 11 1010.5 - 0.0 - - - - - - -
03/01:30pm 31.8 E 8 14 1010.9 - 0.0 - - - - - - -
03/01:00pm 32.7 ENE 6 9 1011.4 - 0.0 - - - - - - -
03/12:30pm 32.4 E 6 10 1011.9 - 0.0 - - - - - - -
03/12:00pm 31.2 E 7 9 1012.2 - 0.0 - - - - - - -
03/11:30am 30.3 E 8 11 1012.6 - 0.0 - - - - - - -
03/11:00am 30.4 E 8 11 1013.0 - 0.0 - - - - - - -
03/10:30am 30.1 ESE 7 12 1013.2 - 0.0 - - - - - - -
03/10:00am 29.3 SE 8 10 1013.5 - 0.0 - - - - - - -
03/09:30am 29.2 ESE 8 11 1013.6 - 0.0 - - - - - - -
03/09:00am 28.8 E 6 10 1013.3 - 1.2 - - - - - - -
03/08:30am 28.0 SE 6 7 1013.4 - 1.2 - - - - - - -
03/08:00am 26.9 SSE 6 7 1013.1 - 1.2 - - - - - - -
03/07:30am 26.4 SE 4 6 1013.1 - 1.2 - - - - - - -
03/07:00am 25.9 SSE 4 7 1012.4 - 1.2 - - - - - - -
03/06:30am 25.8 SE 5 7 1011.8 - 1.2 - - - - - - -
03/06:00am 25.7 SSE 5 7 1011.3 - 1.2 - - - - - - -
03/05:30am 25.7 SSE 6 7 1011.1 - 1.2 - - - - - - -
03/05:00am 25.7 SSE 4 6 1011.2 - 1.2 - - - - - - -
03/04:30am 25.9 SSE 5 6 1011.0 - 1.2 - - - - - - -
03/04:00am 25.9 SSE 4 5 1010.7 - 1.2 - - - - - - -
03/03:30am 25.9 S 3 5 1010.7 - 1.2 - - - - - - -
03/03:00am 25.9 S 3 4 1010.5 - 1.2 - - - - - - -
03/02:30am 25.9 S 3 4 1010.7 - 1.2 - - - - - - -
03/02:00am 26.2 SSE 1 4 1011.0 - 1.2 - - - - - - -
03/01:30am 26.2 SE 1 4 1011.3 - 1.2 - - - - - - -
03/01:00am 26.1 SSE 4 5 1011.5 - 1.2 - - - - - - -
03/12:30am 26.2 SSE 5 6 1012.0 - 1.2 - - - - - - -
03/12:00am 26.3 SSE 4 6 1012.1 - 1.2 - - - - - - -
 
Date/Time
CST
Temp

°C
Wind Pressure Rain
since 9am
mm
Weather Cloud Vis
km
Sea
Height
m
Swell
Dir
 
Speed
knots
Gust
knots
hPa Trend Height
m
Period
s
Dir
02/11:30pm 26.4 S 4 5 1012.3 - 1.2 - - - - - - -
02/11:00pm 26.4 S 2 4 1012.6 - 1.2 - - - - - - -
02/10:30pm 26.4 S 5 7 1012.7 - 1.2 - - - - - - -
02/10:00pm 26.5 S 4 5 1012.8 - 1.2 - - - - - - -
02/09:30pm 26.5 S 4 6 1012.7 - 1.2 - - - - - - -
02/09:00pm 26.7 S 5 7 1012.4 - 1.2 - - - - - - -
02/08:30pm 26.7 S 1 4 1012.6 - 1.2 - - - - - - -
02/08:00pm 26.8 S 4 5 1012.5 - 1.2 - - - - - - -
02/07:30pm 27.1 SSW 5 8 1012.1 - 1.2 - - - - - - -
02/07:00pm 28.2 ESE 4 6 1011.6 - 1.2 - - - - - - -
02/06:30pm 29.2 ENE 6 9 1011.3 - 0.0 - - - - - - -

Other Formats:

Comma delimited format used in spreadsheet applications
http://www.bom.gov.au/fwo/IDD60701/IDD60701.94140.axf

JavaScript Object Notation format (JSON) in row-major order
http://www.bom.gov.au/fwo/IDD60701/IDD60701.94140.json